Time;durP1;ratioP1;P1;durP2;ratioP2;P2;SDS_P1;SDS_P2;PMS_P1;PMS_P2;Temp;Humidity;BMP_temperature;BMP_pressure;BME280_temperature;BME280_humidity;BME280_pressure;Samples;Min_cycle;Max_cycle;Signal;HPM_P1;HPM_P2
2022/11/07 05:02:45;;;;;;;;;7.00;3.75;;;;;13.70;66.62;100748.38;5313406;23;46561;-64
2022/11/07 05:05:11;;;;;;;;;4.00;3.00;;;;;13.68;66.75;100746.69;4961454;28;46240;-63
2022/11/07 05:07:37;;;;;;;;;4.25;3.00;;;;;13.73;66.90;100755.34;4961532;28;45499;-64
2022/11/07 05:10:05;;;;;;;;;4.00;3.00;;;;;13.73;66.82;100748.28;4961754;28;45419;-63
2022/11/07 05:12:31;;;;;;;;;6.00;2.75;;;;;13.74;66.77;100752.66;4949718;28;45510;-64
2022/11/07 05:14:56;;;;;;;;;4.50;3.25;;;;;13.72;66.57;100738.66;4941739;28;47051;-64
2022/11/07 05:17:22;;;;;;;;;8.25;5.75;;;;;13.72;66.90;100740.41;4942052;28;45228;-64
2022/11/07 05:19:47;;;;;;;;;3.00;3.00;;;;;13.76;66.40;100739.41;4949480;28;45307;-64
2022/11/07 05:24:57;;;;;;;;;4.50;2.75;;;;;13.75;66.57;100737.69;4961498;28;45232;-64
2022/11/07 05:27:23;;;;;;;;;4.25;4.00;;;;;13.78;67.03;100742.88;4960636;28;52963;-64
2022/11/07 05:29:48;;;;;;;;;5.50;3.00;;;;;13.78;66.98;100727.03;4961278;28;45246;-64
2022/11/07 05:32:14;;;;;;;;;4.25;2.00;;;;;13.77;66.82;100754.34;4961261;28;45393;-63
2022/11/07 05:34:39;;;;;;;;;6.00;4.25;;;;;13.79;66.80;100741.97;4961178;28;45313;-63
2022/11/07 05:37:11;;;;;;;;;5.00;3.00;;;;;13.82;67.11;100757.72;4961203;28;45412;-63
2022/11/07 05:39:37;;;;;;;;;3.00;2.00;;;;;13.86;66.51;100755.88;4960504;28;45298;-63
2022/11/07 05:42:03;;;;;;;;;7.75;3.50;;;;;13.86;66.68;100754.13;4959994;28;45328;-63
2022/11/07 05:44:29;;;;;;;;;6.00;3.75;;;;;13.80;66.83;100755.13;4960731;28;45240;-63
2022/11/07 05:46:56;;;;;;;;;5.50;3.25;;;;;13.84;66.69;100752.44;4960988;28;45345;-63
2022/11/07 05:49:21;;;;;;;;;5.00;5.00;;;;;13.85;66.97;100760.31;4961198;28;45351;-63
2022/11/07 05:51:47;;;;;;;;;2.75;2.00;;;;;13.90;67.09;100768.97;4960892;28;45515;-63
2022/11/07 05:54:12;;;;;;;;;7.50;4.00;;;;;13.85;66.75;100760.31;4960720;28;53965;-63
2022/11/07 05:56:37;;;;;;;;;6.75;3.00;;;;;13.84;66.51;100769.13;4960685;28;45456;-63
2022/11/07 05:59:03;;;;;;;;;4.50;2.00;;;;;13.86;67.06;100764.69;4960929;28;45649;-63
2022/11/07 06:01:29;;;;;;;;;7.00;4.75;;;;;13.90;67.07;100783.94;4960371;28;45440;-63
2022/11/07 06:03:55;;;;;;;;;4.00;2.75;;;;;13.95;66.56;100797.91;4960785;28;45428;-63
2022/11/07 06:06:20;;;;;;;;;8.00;3.50;;;;;13.94;66.98;100786.47;4960793;28;45406;-64
2022/11/07 06:08:46;;;;;;;;;3.00;3.00;;;;;13.97;66.43;100782.88;4960975;28;45550;-64
2022/11/07 06:11:11;;;;;;;;;4.75;3.00;;;;;13.97;66.58;100778.47;4960661;28;45196;-63
2022/11/07 06:13:36;;;;;;;;;7.00;3.00;;;;;13.96;66.82;100779.38;4960771;28;45230;-64
2022/11/07 06:16:02;;;;;;;;;4.00;4.00;;;;;14.00;67.03;100780.16;4959137;28;45253;-64
2022/11/07 06:18:27;;;;;;;;;4.50;3.75;;;;;13.98;66.45;100781.97;4960762;28;45248;-64
2022/11/07 06:20:53;;;;;;;;;6.50;2.75;;;;;13.96;67.10;100781.13;4960829;28;45248;-64
2022/11/07 06:23:18;;;;;;;;;5.50;4.50;;;;;14.02;66.54;100783.59;4959136;28;48347;-64
2022/11/07 06:25:44;;;;;;;;;8.25;4.00;;;;;14.07;66.57;100791.41;4960433;28;45273;-64
2022/11/07 06:28:11;;;;;;;;;3.25;3.00;;;;;14.09;66.62;100789.59;4959365;28;45401;-64
2022/11/07 06:30:37;;;;;;;;;10.00;4.75;;;;;14.05;66.50;100790.56;4958798;28;45497;-64
2022/11/07 06:33:05;;;;;;;;;5.75;4.00;;;;;14.08;66.70;100793.16;4960231;28;45442;-64
2022/11/07 06:35:31;;;;;;;;;7.50;2.75;;;;;14.00;66.81;100797.75;4960274;28;45484;-64
2022/11/07 06:38:00;;;;;;;;;6.00;3.00;;;;;14.01;66.79;100799.50;4960819;28;45248;-64
2022/11/07 06:40:25;;;;;;;;;9.25;6.75;;;;;14.02;67.03;100811.81;4960194;28;45481;-64
2022/11/07 06:42:51;;;;;;;;;7.75;6.00;;;;;14.10;66.54;100818.63;4959916;28;53943;-64
2022/11/07 06:45:16;;;;;;;;;4.50;2.50;;;;;14.16;66.44;100811.41;4958828;28;45697;-62
2022/11/07 06:47:41;;;;;;;;;5.50;4.00;;;;;14.13;66.58;100810.59;4960428;28;45966;-63
2022/11/07 06:50:07;;;;;;;;;6.00;4.00;;;;;14.09;66.94;100802.81;4960263;28;45515;-61
2022/11/07 06:52:32;;;;;;;;;10.75;9.75;;;;;14.14;66.62;100799.13;4960108;28;46113;-61
2022/11/07 06:54:58;;;;;;;;;6.75;4.50;;;;;14.15;66.58;100807.94;4962660;28;45375;-63
2022/11/07 06:57:23;;;;;;;;;8.50;3.75;;;;;14.12;66.31;100794.78;4963539;28;45430;-65
2022/11/07 06:59:48;;;;;;;;;4.25;4.00;;;;;14.14;66.66;100798.25;4963274;28;45512;-66
2022/11/07 07:02:13;;;;;;;;;7.00;4.50;;;;;14.18;66.65;100815.75;4962924;28;55664;-67
2022/11/07 07:04:39;;;;;;;;;6.75;3.00;;;;;14.18;66.64;100818.41;4961997;28;46155;-67
2022/11/07 07:07:04;;;;;;;;;4.75;2.50;;;;;14.21;66.52;100812.16;4963602;28;45421;-67
2022/11/07 07:09:30;;;;;;;;;6.25;5.75;;;;;14.24;66.42;100820.88;4963325;28;45294;-67
2022/11/07 07:11:55;;;;;;;;;3.25;2.50;;;;;14.28;66.65;100830.44;4963043;28;50161;-66
2022/11/07 07:14:20;;;;;;;;;5.50;2.75;;;;;14.27;66.87;100823.41;4962935;28;45407;-68
2022/11/07 07:16:46;;;;;;;;;9.50;4.75;;;;;14.25;66.44;100813.78;4963421;28;45517;-64
2022/11/07 07:19:11;;;;;;;;;3.25;3.25;;;;;14.28;66.74;100821.66;4961770;28;45260;-64
2022/11/07 07:21:37;;;;;;;;;6.50;5.25;;;;;14.29;66.72;100818.09;4963051;28;45959;-64
2022/11/07 07:24:02;;;;;;;;;2.75;2.00;;;;;14.32;66.21;100823.28;4963113;28;45280;-64
2022/11/07 07:26:28;;;;;;;;;6.75;4.00;;;;;14.35;66.43;100831.16;4962189;28;45444;-63
2022/11/07 07:28:54;;;;;;;;;6.25;2.50;;;;;14.39;66.71;100823.97;4961517;28;45506;-64
2022/11/07 07:31:23;;;;;;;;;3.75;3.50;;;;;14.39;66.28;100827.50;4959922;28;46816;-64
2022/11/07 07:33:49;;;;;;;;;4.75;3.00;;;;;14.42;65.77;100834.47;4961403;28;45386;-63
2022/11/07 07:36:14;;;;;;;;;6.50;4.00;;;;;14.42;66.14;100832.69;4962327;28;45453;-63
2022/11/07 07:38:40;;;;;;;;;4.75;3.00;;;;;14.42;66.69;100827.41;4962431;28;45483;-64
2022/11/07 07:41:06;;;;;;;;;5.25;2.50;;;;;14.44;66.22;100830.03;4962787;28;45409;-63
2022/11/07 07:43:31;;;;;;;;;4.00;3.00;;;;;14.42;66.79;100834.47;4962892;28;45313;-63
2022/11/07 07:45:58;;;;;;;;;6.50;4.50;;;;;14.46;66.56;100838.75;4963030;28;45368;-63
2022/11/07 07:48:24;;;;;;;;;6.75;4.50;;;;;14.49;66.25;100821.94;4962745;28;45397;-63
2022/11/07 07:50:49;;;;;;;;;4.25;4.25;;;;;14.50;66.81;100834.25;4962677;28;46123;-63
2022/11/07 07:53:15;;;;;;;;;4.50;3.50;;;;;14.45;66.58;100827.31;4962559;28;45301;-64
2022/11/07 07:55:41;;;;;;;;;5.25;3.25;;;;;14.43;66.31;100844.16;4961820;28;45527;-63
2022/11/07 07:58:06;;;;;;;;;5.00;4.00;;;;;14.46;66.51;100844.03;4962013;28;45783;-64
2022/11/07 08:00:31;;;;;;;;;3.25;3.00;;;;;14.50;66.57;100836.91;4962351;28;50734;-63
2022/11/07 08:03:01;;;;;;;;;5.00;3.50;;;;;14.47;66.74;100835.22;4962252;28;45442;-63
2022/11/07 08:05:27;;;;;;;;;4.25;3.25;;;;;14.45;67.17;100834.38;4961888;28;45186;-63
2022/11/07 08:07:52;;;;;;;;;5.00;2.75;;;;;14.51;66.68;100843.91;4962180;28;45479;-63
2022/11/07 08:10:18;;;;;;;;;5.00;3.25;;;;;14.52;66.81;100835.94;4961997;28;55355;-63
2022/11/07 08:12:47;;;;;;;;;4.25;3.00;;;;;14.51;66.90;100842.13;4962337;28;45226;-63
2022/11/07 08:15:15;;;;;;;;;4.00;3.00;;;;;14.52;66.23;100838.59;4962267;28;45403;-64
2022/11/07 08:17:41;;;;;;;;;4.25;3.00;;;;;14.53;66.89;100848.25;4962111;28;46134;-63
2022/11/07 08:20:08;;;;;;;;;5.50;4.25;;;;;14.56;66.70;100850.78;4960846;28;47309;-63
2022/11/07 08:22:34;;;;;;;;;5.50;4.50;;;;;14.61;66.91;100851.53;4962027;28;45220;-63
2022/11/07 08:24:59;;;;;;;;;4.75;3.75;;;;;14.63;67.11;100862.09;4961207;28;45473;-63
2022/11/07 08:27:24;;;;;;;;;5.00;3.25;;;;;14.65;66.62;100856.78;4962017;28;45394;-63
2022/11/07 08:29:50;;;;;;;;;4.00;4.00;;;;;14.68;66.54;100865.50;4961864;28;50817;-64
2022/11/07 08:32:15;;;;;;;;;8.75;5.75;;;;;14.72;66.71;100868.91;4961076;28;45309;-64
2022/11/07 08:34:40;;;;;;;;;2.75;1.00;;;;;14.78;66.81;100884.59;4962302;28;45353;-64
2022/11/07 08:37:06;;;;;;;;;4.75;3.00;;;;;14.84;66.85;100875.59;4961985;28;45453;-63
2022/11/07 08:39:31;;;;;;;;;2.00;2.00;;;;;14.83;66.60;100872.09;4961565;28;53778;-64
2022/11/07 08:41:56;;;;;;;;;7.25;4.75;;;;;14.82;66.54;100874.78;4961832;28;45326;-63
2022/11/07 08:44:22;;;;;;;;;4.75;2.25;;;;;14.85;66.39;100875.56;4961747;28;45703;-63
2022/11/07 08:46:48;;;;;;;;;7.50;4.00;;;;;14.85;66.71;100878.19;4962024;28;45421;-63
2022/11/07 08:49:13;;;;;;;;;4.25;2.75;;;;;14.93;66.27;100870.91;4961785;28;45338;-63
2022/11/07 08:51:38;;;;;;;;;6.25;4.00;;;;;14.93;66.38;100870.91;4962011;28;45403;-64
2022/11/07 08:54:04;;;;;;;;;5.50;2.75;;;;;14.92;66.40;100868.31;4961951;28;45548;-64
2022/11/07 08:56:29;;;;;;;;;4.25;2.25;;;;;14.95;66.73;100868.22;4961664;28;45384;-63
2022/11/07 08:58:55;;;;;;;;;4.50;3.50;;;;;14.98;66.63;100875.19;4961681;28;46959;-63
2022/11/07 09:01:20;;;;;;;;;12.00;5.50;;;;;14.98;66.72;100875.19;4961203;28;45320;-63
2022/11/07 09:03:46;;;;;;;;;4.00;4.00;;;;;15.00;66.23;100871.59;4961934;28;45311;-63
2022/11/07 09:06:11;;;;;;;;;4.00;2.75;;;;;15.06;66.73;100883.78;4961534;28;45525;-63
2022/11/07 09:08:36;;;;;;;;;5.50;1.75;;;;;15.10;66.62;100894.19;4961682;28;46223;-64
2022/11/07 09:11:03;;;;;;;;;6.75;4.00;;;;;15.11;66.46;100889.78;4961157;28;45359;-63
2022/11/07 09:13:32;;;;;;;;;3.00;3.00;;;;;15.08;66.37;100887.22;4961793;28;45372;-63
2022/11/07 09:16:00;;;;;;;;;8.00;3.25;;;;;15.14;66.24;100888.81;4961106;28;45433;-63
2022/11/07 09:18:26;;;;;;;;;5.75;2.50;;;;;15.14;66.06;100896.78;4960984;28;46195;-63
2022/11/07 09:20:52;;;;;;;;;4.50;3.25;;;;;15.17;66.43;100892.25;4961101;28;45338;-63
2022/11/07 09:23:17;;;;;;;;;7.50;4.00;;;;;15.17;66.04;100892.25;4959898;28;45270;-63
2022/11/07 09:25:43;;;;;;;;;3.00;1.50;;;;;15.21;66.36;100907.13;4961266;28;45212;-63
2022/11/07 09:28:08;;;;;;;;;5.00;4.50;;;;;15.22;66.30;100892.97;4961212;28;45417;-63
2022/11/07 09:30:33;;;;;;;;;5.50;3.75;;;;;15.23;66.21;100892.06;4960920;28;45209;-63
2022/11/07 09:32:59;;;;;;;;;7.00;4.50;;;;;15.24;66.11;100893.81;4961528;28;45370;-64
2022/11/07 09:35:25;;;;;;;;;6.50;4.25;;;;;15.30;65.99;100903.31;4961057;28;45158;-64
2022/11/07 09:37:50;;;;;;;;;4.25;2.75;;;;;15.29;65.97;100891.00;4961056;28;46317;-63
2022/11/07 09:40:28;;;;;;;;;6.00;3.75;;;;;15.39;66.01;100891.56;4960358;28;45263;-64
2022/11/07 09:43:09;;;;;;;;;6.00;4.00;;;;;15.35;65.90;100884.66;4961331;28;45513;-64
2022/11/07 09:45:50;;;;;;;;;6.50;5.25;;;;;15.42;65.83;100888.81;4959503;28;45259;-63
2022/11/07 09:48:22;;;;;;;;;7.75;3.50;;;;;15.46;65.96;100892.22;4960987;28;46234;-64
2022/11/07 09:50:48;;;;;;;;;4.50;3.25;;;;;15.41;66.25;100895.03;4961203;28;45344;-63
2022/11/07 09:53:30;;;;;;;;;3.50;2.75;;;;;15.47;66.00;100900.16;4960828;28;45485;-63
2022/11/07 09:55:58;;;;;;;;;4.25;3.00;;;;;15.53;65.74;100894.63;4960840;28;45194;-64
2022/11/07 09:58:28;;;;;;;;;6.00;3.50;;;;;15.54;65.73;100892.88;4960606;28;46161;-64
2022/11/07 10:00:58;;;;;;;;;4.25;3.00;;;;;15.54;65.86;100895.50;4960655;28;45359;-63
2022/11/07 10:03:24;;;;;;;;;3.50;3.25;;;;;15.60;65.84;100888.22;4960564;28;45316;-64
2022/11/07 10:06:16;;;;;;;;;4.50;1.75;;;;;15.64;65.90;100891.63;4960819;28;45323;-63
2022/11/07 10:09:10;;;;;;;;;4.75;3.75;;;;;15.65;65.65;100895.19;4960944;28;45354;-64
2022/11/07 10:11:53;;;;;;;;;2.50;2.25;;;;;15.69;65.81;100894.16;4960551;28;45247;-64
2022/11/07 10:14:30;;;;;;;;;1.75;1.75;;;;;15.71;66.00;100903.78;4960568;28;45262;-64
2022/11/07 10:17:32;;;;;;;;;1.75;1.75;;;;;15.73;65.63;100903.72;4960649;28;45563;-64
2022/11/07 10:20:17;;;;;;;;;1.75;1.75;;;;;15.81;65.66;100901.69;4960427;28;46156;-64
2022/11/07 10:23:00;;;;;;;;;4.00;2.50;;;;;15.87;65.12;100897.97;4960481;28;45321;-64
2022/11/07 10:25:56;;;;;;;;;2.75;2.75;;;;;15.88;65.53;100897.06;4960528;28;45334;-64
2022/11/07 10:28:24;;;;;;;;;5.25;1.75;;;;;15.96;65.13;100904.75;4959999;28;45658;-64
2022/11/07 10:30:51;;;;;;;;;3.50;3.25;;;;;16.01;65.35;100889.56;4963605;28;47429;-64
2022/11/07 10:33:50;;;;;;;;;5.50;3.50;;;;;16.07;65.27;100886.69;4963865;28;45221;-64
2022/11/07 10:36:25;;;;;;;;;6.25;2.50;;;;;16.15;65.31;100881.13;4964061;28;45446;-64
2022/11/07 10:38:51;;;;;;;;;2.75;2.00;;;;;16.17;65.10;100884.59;4962357;28;45393;-64
2022/11/07 10:41:18;;;;;;;;;3.25;3.00;;;;;16.25;65.20;100883.41;4962340;28;45225;-65
2022/11/07 10:43:57;;;;;;;;;4.75;2.00;;;;;16.33;64.95;100875.19;4963393;28;45324;-64
2022/11/07 10:46:34;;;;;;;;;4.75;3.00;;;;;16.39;64.91;100890.00;4963769;28;45266;-65
2022/11/07 10:49:01;;;;;;;;;6.75;2.00;;;;;16.45;64.84;100883.59;4963664;28;45249;-63
2022/11/07 10:51:35;;;;;;;;;2.75;1.75;;;;;16.48;64.66;100878.22;4963477;28;46400;-64
2022/11/07 10:54:01;;;;;;;;;3.00;2.75;;;;;16.45;64.69;100880.94;4963629;28;45410;-64
2022/11/07 10:56:27;;;;;;;;;2.00;2.00;;;;;16.49;64.86;100886.09;4962219;28;45345;-64
2022/11/07 10:58:52;;;;;;;;;4.00;2.25;;;;;16.49;64.84;100885.22;4946054;28;45212;-64
2022/11/07 11:01:24;;;;;;;;;4.00;3.00;;;;;16.48;64.76;100881.72;4963036;28;45441;-63
2022/11/07 11:03:49;;;;;;;;;5.00;2.75;;;;;16.55;64.39;100888.53;4963381;28;45429;-63
2022/11/07 11:06:18;;;;;;;;;3.50;2.00;;;;;16.62;64.41;100893.59;4963499;28;45338;-64
2022/11/07 11:08:46;;;;;;;;;3.50;3.00;;;;;16.61;64.39;100875.97;4963348;28;45454;-65
2022/11/07 11:11:20;;;;;;;;;5.25;3.00;;;;;16.57;64.33;100894.63;4962986;28;45403;-63
2022/11/07 11:13:46;;;;;;;;;4.00;4.00;;;;;16.61;64.28;100882.13;4963313;28;45311;-63
2022/11/07 11:16:12;;;;;;;;;5.00;3.25;;;;;16.60;64.75;100885.69;4962920;28;45366;-63
2022/11/07 11:18:37;;;;;;;;;5.25;3.00;;;;;16.61;64.43;100868.84;4963311;28;45294;-63
2022/11/07 11:21:04;;;;;;;;;4.00;2.75;;;;;16.63;64.38;100864.38;4962961;28;45385;-64
2022/11/07 11:23:35;;;;;;;;;4.00;4.00;;;;;16.61;64.35;100868.00;4963135;28;45429;-63
2022/11/07 11:26:05;;;;;;;;;6.25;3.50;;;;;16.66;64.27;100864.22;4963067;28;45243;-63
2022/11/07 11:28:38;;;;;;;;;5.00;4.25;;;;;16.72;64.03;100871.13;4962906;28;46199;-65
2022/11/07 11:31:14;;;;;;;;;7.75;5.25;;;;;16.71;64.21;100886.16;4962527;28;46268;-63
2022/11/07 11:34:02;;;;;;;;;5.50;2.50;;;;;16.73;64.24;100872.84;4962928;28;45259;-63
2022/11/07 11:36:35;;;;;;;;;3.50;3.50;;;;;16.77;64.14;100879.75;4962975;28;45334;-63
2022/11/07 11:39:08;;;;;;;;;3.75;3.00;;;;;16.76;64.17;100862.09;4962981;28;45342;-63
2022/11/07 11:41:34;;;;;;;;;4.00;4.00;;;;;16.85;64.19;100872.34;4959948;28;46449;-64
2022/11/07 11:44:17;;;;;;;;;3.00;2.25;;;;;16.85;63.96;100859.09;4943404;28;45606;-63
2022/11/07 11:46:52;;;;;;;;;2.75;1.00;;;;;16.89;63.85;100873.09;4943540;28;45409;-64
2022/11/07 11:49:23;;;;;;;;;5.00;3.75;;;;;16.96;63.44;100868.47;4943352;28;45520;-64
2022/11/07 11:51:52;;;;;;;;;4.50;2.25;;;;;16.95;63.58;100866.75;4943060;28;45399;-64
2022/11/07 11:54:18;;;;;;;;;3.00;3.00;;;;;16.98;63.57;100858.66;4943293;28;45416;-65
2022/11/07 11:56:46;;;;;;;;;5.00;3.50;;;;;17.10;63.38;100867.94;4943107;28;45314;-64
2022/11/07 11:59:35;;;;;;;;;2.00;2.00;;;;;17.12;63.12;100866.94;4943094;28;45324;-64
2022/11/07 12:02:16;;;;;;;;;4.50;2.50;;;;;17.06;63.26;100864.53;4950038;28;45434;-64
2022/11/07 12:05:13;;;;;;;;;2.50;2.00;;;;;17.11;63.34;100867.88;4962469;28;45353;-64
2022/11/07 12:08:01;;;;;;;;;4.25;2.75;;;;;17.13;63.27;100860.72;4962584;28;45248;-63
2022/11/07 12:10:49;;;;;;;;;3.50;2.50;;;;;17.18;62.97;100865.81;4962317;28;45426;-63
2022/11/07 12:13:39;;;;;;;;;5.75;1.25;;;;;17.21;62.99;100855.09;4959061;28;45335;-63
2022/11/07 12:16:14;;;;;;;;;5.25;5.00;;;;;17.18;63.03;100865.81;4962056;28;45560;-62
2022/11/07 12:19:19;;;;;;;;;3.25;3.25;;;;;17.18;63.00;100853.44;4962402;28;45259;-63
2022/11/07 12:22:05;;;;;;;;;2.00;2.00;;;;;17.27;62.85;100840.69;4951822;28;45242;-63
2022/11/07 12:24:56;;;;;;;;;7.25;3.25;;;;;17.25;62.77;100837.25;4960777;28;45356;-62
2022/11/07 12:27:38;;;;;;;;;3.25;2.50;;;;;17.29;62.40;100839.69;4961389;28;45437;-63
2022/11/07 12:30:21;;;;;;;;;4.25;3.00;;;;;17.33;62.96;100837.78;4961975;28;45401;-63
2022/11/07 12:32:55;;;;;;;;;3.50;3.00;;;;;17.36;62.74;100841.19;4962133;28;45333;-64
2022/11/07 12:35:34;;;;;;;;;6.00;3.75;;;;;17.35;62.58;100831.47;4961807;28;47170;-63
2022/11/07 12:38:28;;;;;;;;;5.00;3.00;;;;;17.38;62.41;100833.16;4961962;28;45366;-63
2022/11/07 12:41:00;;;;;;;;;4.25;2.50;;;;;17.38;62.41;100833.16;4961800;28;45304;-63
2022/11/07 12:43:58;;;;;;;;;1.25;1.00;;;;;17.39;62.36;100832.22;4961713;28;45278;-63
2022/11/07 12:46:58;;;;;;;;;3.75;2.00;;;;;17.42;62.17;100832.13;4961782;28;45398;-63
2022/11/07 12:49:35;;;;;;;;;2.00;2.00;;;;;17.41;62.34;100826.84;4961723;28;45265;-64
2022/11/07 12:52:28;;;;;;;;;5.00;3.00;;;;;17.40;62.28;100826.00;4961182;28;45491;-64
2022/11/07 12:55:18;;;;;;;;;4.50;3.00;;;;;17.42;62.10;100817.94;4960504;28;45890;-64
2022/11/07 12:57:46;;;;;;;;;4.25;2.00;;;;;17.36;62.42;100819.94;4960081;28;47396;-64
2022/11/07 13:00:18;;;;;;;;;6.25;4.00;;;;;17.41;62.47;100832.16;4961175;28;45310;-63
2022/11/07 13:03:21;;;;;;;;;4.50;2.00;;;;;17.38;62.60;100830.50;4960139;28;45931;-64
2022/11/07 13:06:02;;;;;;;;;2.00;1.25;;;;;17.40;62.48;100835.75;4961549;28;45444;-64
2022/11/07 13:08:32;;;;;;;;;4.75;2.00;;;;;17.43;62.65;100832.97;4961296;28;45398;-63
2022/11/07 13:11:39;;;;;;;;;2.75;2.50;;;;;17.49;62.55;100835.38;4961436;28;45442;-64
2022/11/07 13:14:19;;;;;;;;;3.00;2.00;;;;;17.52;62.66;100821.94;4958174;28;45394;-64
2022/11/07 13:17:12;;;;;;;;;2.00;1.00;;;;;17.58;62.58;100829.66;4961479;28;45234;-65
2022/11/07 13:19:40;;;;;;;;;2.50;2.25;;;;;17.56;62.88;100831.53;4960912;28;46450;-63
2022/11/07 13:22:15;;;;;;;;;2.50;1.00;;;;;17.59;62.65;100831.41;4959981;28;45484;-64
2022/11/07 13:25:14;;;;;;;;;4.00;1.75;;;;;17.59;62.67;100830.53;4961175;28;45472;-64
2022/11/07 13:27:45;;;;;;;;;4.25;1.75;;;;;17.55;62.68;100820.03;4957913;28;45458;-63
2022/11/07 13:30:10;;;;;;;;;3.25;3.00;;;;;17.54;62.22;100826.25;4960708;28;47377;-64
2022/11/07 13:32:44;;;;;;;;;3.00;2.50;;;;;17.51;62.64;100823.75;4961021;28;45252;-64
2022/11/07 13:35:22;;;;;;;;;5.00;2.00;;;;;17.46;62.41;100822.19;4961279;28;45252;-64
2022/11/07 13:38:16;;;;;;;;;5.50;3.25;;;;;17.42;62.33;100809.97;4960781;28;45390;-64
2022/11/07 13:40:49;;;;;;;;;2.25;2.00;;;;;17.39;62.69;100805.66;4962085;28;45683;-64
2022/11/07 13:43:20;;;;;;;;;3.50;2.50;;;;;17.35;62.95;100809.38;4960755;28;45240;-64
2022/11/07 13:45:51;;;;;;;;;13.25;13.25;;;;;17.32;62.31;100815.69;4960635;28;45318;-64
2022/11/07 13:48:21;;;;;;;;;4.75;4.00;;;;;17.31;62.71;100823.72;4960953;28;45414;-64
2022/11/07 13:51:16;;;;;;;;;7.00;5.00;;;;;17.27;62.38;100822.09;4961275;28;46634;-64
2022/11/07 13:53:58;;;;;;;;;6.00;3.00;;;;;17.21;62.59;100821.44;4960775;28;45322;-64
2022/11/07 13:56:41;;;;;;;;;4.50;3.25;;;;;17.12;62.47;100811.19;4960775;28;45342;-63
2022/11/07 13:59:16;;;;;;;;;4.00;2.00;;;;;17.05;62.59;100802.59;4960432;28;45409;-64
2022/11/07 14:01:43;;;;;;;;;2.00;2.00;;;;;16.99;62.74;100796.69;4960519;28;46457;-64
2022/11/07 14:04:14;;;;;;;;;2.50;1.50;;;;;16.95;62.91;100798.59;4962103;28;45354;-64
2022/11/07 14:06:41;;;;;;;;;5.00;1.50;;;;;16.88;62.86;100791.78;4964426;28;45231;-64
2022/11/07 14:09:06;;;;;;;;;4.00;1.25;;;;;16.87;62.83;100790.91;4964176;28;45363;-64
2022/11/07 14:11:34;;;;;;;;;2.00;1.00;;;;;16.86;62.78;100793.63;4963746;28;46279;-64
2022/11/07 14:13:59;;;;;;;;;5.50;4.00;;;;;16.83;62.96;100784.00;4963872;28;45346;-64
2022/11/07 14:16:29;;;;;;;;;2.00;2.00;;;;;16.85;62.86;100792.75;4964085;28;45282;-63
2022/11/07 14:18:59;;;;;;;;;4.00;2.75;;;;;16.92;62.77;100781.91;4964049;28;45232;-64
2022/11/07 14:21:28;;;;;;;;;4.50;3.00;;;;;16.93;63.05;100778.34;4963859;28;46204;-63
2022/11/07 14:23:53;;;;;;;;;3.00;3.00;;;;;16.97;62.73;100778.16;4963975;28;45304;-64
2022/11/07 14:26:24;;;;;;;;;5.00;2.75;;;;;17.04;62.84;100781.41;4963877;28;45368;-63
2022/11/07 14:28:50;;;;;;;;;4.75;2.00;;;;;17.09;62.77;100776.78;4957493;28;45344;-64
2022/11/07 14:31:38;;;;;;;;;2.25;2.00;;;;;17.13;62.67;100775.75;4963762;28;46060;-63
2022/11/07 14:34:12;;;;;;;;;1.00;1.00;;;;;17.27;62.82;100780.50;4963390;28;45239;-64
2022/11/07 14:36:59;;;;;;;;;2.00;2.00;;;;;17.35;62.77;100781.03;4963881;28;45319;-63
2022/11/07 14:39:27;;;;;;;;;2.25;1.00;;;;;17.45;62.74;100783.31;4963537;28;45413;-64
2022/11/07 14:41:55;;;;;;;;;3.00;2.75;;;;;17.50;62.46;100774.19;4963434;28;47020;-63
2022/11/07 14:44:28;;;;;;;;;4.50;3.00;;;;;17.59;62.66;100772.94;4963581;28;45391;-64
2022/11/07 14:46:54;;;;;;;;;5.00;3.00;;;;;17.64;62.82;100770.94;4962312;28;45562;-64
2022/11/07 14:49:26;;;;;;;;;4.50;4.00;;;;;17.71;62.80;100780.38;4963556;28;45307;-63
2022/11/07 14:51:54;;;;;;;;;5.50;3.00;;;;;17.79;62.48;100769.41;4963491;28;45296;-63
2022/11/07 14:54:23;;;;;;;;;5.50;3.50;;;;;17.89;62.61;100774.34;4962354;28;45371;-64
2022/11/07 14:56:53;;;;;;;;;4.00;2.00;;;;;17.96;62.48;100767.84;4963429;28;45351;-64
2022/11/07 14:59:21;;;;;;;;;4.00;4.00;;;;;17.98;62.37;100773.97;4963351;28;45523;-63
2022/11/07 15:01:57;;;;;;;;;5.00;3.50;;;;;18.06;62.57;100774.47;4962972;28;46021;-63
2022/11/07 15:04:34;;;;;;;;;3.50;2.00;;;;;18.09;62.33;100770.84;4963335;28;45267;-63
2022/11/07 15:07:30;;;;;;;;;5.00;3.00;;;;;18.09;62.47;100769.03;4963520;28;45223;-64
2022/11/07 15:09:57;;;;;;;;;6.00;4.00;;;;;18.10;62.25;100772.53;4958698;28;45272;-63
2022/11/07 15:12:28;;;;;;;;;6.25;4.25;;;;;18.08;62.15;100771.75;4963123;28;45428;-64
2022/11/07 15:15:21;;;;;;;;;6.00;5.00;;;;;18.03;62.24;100771.94;4962559;28;45203;-64
2022/11/07 15:17:49;;;;;;;;;2.25;2.25;;;;;17.94;61.90;100767.06;4963013;28;45396;-64
2022/11/07 15:20:32;;;;;;;;;3.50;2.00;;;;;17.87;62.21;100767.31;4963240;28;45323;-63
2022/11/07 15:23:03;;;;;;;;;3.00;3.00;;;;;17.82;62.16;100760.44;4962917;28;46095;-64
2022/11/07 15:25:40;;;;;;;;;4.75;3.25;;;;;17.82;62.04;100766.66;4963078;28;45378;-63
2022/11/07 15:28:18;;;;;;;;;7.00;5.00;;;;;17.79;62.12;100755.28;4963128;28;45337;-64
2022/11/07 15:30:44;;;;;;;;;5.00;5.00;;;;;17.71;62.31;100753.81;4962687;28;45264;-64
2022/11/07 15:33:17;;;;;;;;;6.00;4.75;;;;;17.69;62.23;100755.66;4961530;28;46096;-64
2022/11/07 15:35:45;;;;;;;;;4.00;3.00;;;;;17.65;61.96;100751.41;4962918;28;45240;-64
2022/11/07 15:38:16;;;;;;;;;3.00;3.00;;;;;17.67;62.10;100754.00;4963120;28;45287;-63
2022/11/07 15:40:42;;;;;;;;;5.25;4.00;;;;;17.67;61.57;100754.88;4962036;28;45208;-63
2022/11/07 15:43:07;;;;;;;;;3.75;3.75;;;;;17.64;61.80;100754.16;4962681;28;45245;-64
2022/11/07 15:45:33;;;;;;;;;4.50;2.00;;;;;17.61;61.92;100757.81;4962176;28;51126;-63
2022/11/07 15:47:58;;;;;;;;;4.00;3.00;;;;;17.54;61.94;100751.03;4962891;28;45445;-63
2022/11/07 15:50:24;;;;;;;;;4.75;2.00;;;;;17.53;61.97;100752.84;4961240;28;45862;-64
2022/11/07 15:52:50;;;;;;;;;2.75;2.75;;;;;17.48;61.55;100754.81;4962660;28;45920;-64
2022/11/07 15:55:18;;;;;;;;;4.25;3.25;;;;;17.43;61.91;100751.47;4962585;28;45231;-64
2022/11/07 15:57:45;;;;;;;;;2.50;2.00;;;;;17.42;61.59;100749.78;4962594;28;45322;-64
2022/11/07 16:00:20;;;;;;;;;3.75;3.00;;;;;17.40;61.66;100759.59;4962275;28;45278;-64
2022/11/07 16:02:46;;;;;;;;;5.00;3.50;;;;;17.40;61.58;100750.78;4962197;28;46476;-64
2022/11/07 16:05:12;;;;;;;;;4.25;4.00;;;;;17.37;61.72;100749.97;4962190;28;45271;-66
2022/11/07 16:07:40;;;;;;;;;3.00;3.00;;;;;17.38;61.54;100756.13;4962706;28;45231;-64
2022/11/07 16:10:23;;;;;;;;;2.50;2.50;;;;;17.31;61.43;100752.03;4962288;28;45587;-64
2022/11/07 16:12:50;;;;;;;;;6.50;3.50;;;;;17.25;61.53;100765.56;4962078;28;47303;-64
2022/11/07 16:15:17;;;;;;;;;3.25;2.00;;;;;17.27;61.50;100761.03;4962207;28;45317;-65
2022/11/07 16:17:43;;;;;;;;;4.00;3.25;;;;;17.27;61.40;100764.56;4960897;28;45331;-64
2022/11/07 16:20:18;;;;;;;;;5.00;4.00;;;;;17.26;61.15;100759.28;4962180;28;45314;-64
2022/11/07 16:22:45;;;;;;;;;3.00;3.00;;;;;17.17;61.67;100763.22;4962070;28;45437;-65
2022/11/07 16:25:15;;;;;;;;;5.75;3.00;;;;;17.15;61.53;100765.06;4962164;28;45294;-65
2022/11/07 16:27:49;;;;;;;;;3.50;2.75;;;;;17.11;61.43;100768.78;4959767;28;45381;-64
2022/11/07 16:30:16;;;;;;;;;4.00;4.00;;;;;17.14;61.57;100766.00;4961908;28;45561;-64
2022/11/07 16:32:42;;;;;;;;;3.00;2.75;;;;;17.13;61.60;100765.13;4961870;28;45352;-65
2022/11/07 16:35:07;;;;;;;;;4.75;2.00;;;;;17.10;61.42;100756.44;4962036;28;45372;-65
2022/11/07 16:37:33;;;;;;;;;4.00;3.00;;;;;17.10;61.49;100759.94;4961847;28;45271;-64
2022/11/07 16:39:58;;;;;;;;;7.75;4.50;;;;;17.08;61.70;100755.63;4961699;28;54027;-64
2022/11/07 16:42:24;;;;;;;;;4.25;4.00;;;;;17.09;61.53;100762.66;4960494;28;45372;-64
2022/11/07 16:44:49;;;;;;;;;4.00;4.00;;;;;17.06;61.58;100753.88;4961758;28;45295;-64
2022/11/07 16:47:15;;;;;;;;;3.25;2.75;;;;;17.05;61.20;100761.91;4961790;28;45299;-64